Normal, IL

10:13 AM CDT on August 29, 2016 (GMT -0500)
Den2 | | Change Station

Elev 843 ft 40.53 °N, 88.99 °W | Updated 9 seconds ago

Clear
Clear
82.6 °F
Feels Like 87 °F
N
0.0
Wind Variable Wind from SSW
Gusts 0.0 mph

Today
High -- | Low -- °F
--% Chance of Precip.
Yesterday
High -- | Low -- °F
Precip. -- in
Pressure 30.28 in
Visibility 10.0 miles
Clouds Clear
Heat Index 87 °F
Dew Point 70 °F
Humidity 67%
Rainfall 0.00 in
Snow Depth Not available.
6:20 AM 7:31 PM
Waning Crescent, 8% visible
METAR KBMI 291456Z 11003KT 10SM CLR 26/23 A3025 RMK AO2 RAB45E52 SLP254 P0015 60016 T02610228 51012
Pressure 30.28 in
Visibility 10.0 miles
Clouds Clear
Heat Index 87 °F
Dew Point 70 °F
Humidity 67%
Rainfall 0.00 in
Snow Depth Not available.
6:20 AM 7:31 PM
Waning Crescent, 8% visible
METAR KBMI 291456Z 11003KT 10SM CLR 26/23 A3025 RMK AO2 RAB45E52 SLP254 P0015 60016 T02610228 51012

10-Day Weather Forecast

Almanac

Astronomy

Aug. 29, 2016 Rise Set
Actual Time
Civil Twilight
Nautical Twilight
Astronomical Twilight
Moon
Length of Visible Light
Length of Day
Tomorrow will be .
, % of the Moon is Illuminated

Today's Extremes

State Highs State Lows

Community

WunderPhotos

Upload Photos

1,935,841 photos uploaded!

WunderBlog® & News

Nearby

Air Quality

  Air Quality AQ Index Pollutant
Not available.

Snow Depth

Station Depth Elevation

Earthquake Activity

City Distance Mag. Time & Date
Minimum magnitude displayed is 2.5.

Coastal Water Temperatures

Place Temperature

Stations

Nearby Weather Stations

Station Location Temp. Windchill Dew Point Humidity Wind Precip. Elev Updated Type
                   

Watches & Warnings

There are currently no watches in effect.